Главная страница
METAR-TAF:

METAR-TAF

Аэропорты :

Phillip Goldston

Белиз, Белиз

широта: 17-32N, долгота: 088-18W, высота над уровнем моря: 5 м

Текущие метеонаблюдения

Эта сводка был подготовлена 36 минут назад, в 20:00 UTC
Ветер 6 Узел от восточно-юго-восточный
Температура 31°C
Влажность 71%
Давление 1012 hPa
Видимость 10 км и более
Рассеянная облачность на высоте 2500 фута

METAR: MZBZ 242000Z 12006KT 9999 BKN025 31/25 A2988 Q1012 NOSIG

Время: 14:36 (20:36 UTC)

Прогноз

Эта сводка был подготовлена 5 часа и 36 минут назад, в 15:00 UTC
Прогноз действительный с 24-го 18 UTC до 25-го 18 UTC
Ветер 8 Узел от восточный
Видимость 10 км и более
Отдельные облака на высоте 2200 фута

TAF: MZBZ 241500Z 2418/2518 10008KT 9999 SCT022

Метеонаблюдения и прогнозы для более 4000 аэропортов (сводки METAR и TAF).

Имеющиеся станции представлены на карте желтыми и красными точками.

Чтобы увидеть название станции, наведите на нее мышь.

Затем щелкните, чтобы увидеть метеонаблюдения и метеопрогнозы.

Управление картой: чтобы увеличить масштаб, щелкните зеленые кнопки с черным крестиком; чтобы уменьшить масштаб, щелкните зеленую кнопку с тире; для просмотра соседних карт щелкайте зеленые стрелки.


METAR-TAF: